sensor_id;sensor_type;location;lat;lon;timestamp;P1;durP1;ratioP1;P2;durP2;ratioP2
74749;SDS011;63269;53.330;-6.288;2023-01-29T00:01:03;6.13;;;4.80;;
74749;SDS011;63269;53.330;-6.288;2023-01-29T00:03:29;5.88;;;4.80;;
74749;SDS011;63269;53.330;-6.288;2023-01-29T00:05:55;7.72;;;4.90;;
74749;SDS011;63269;53.330;-6.288;2023-01-29T00:08:20;7.28;;;4.82;;
74749;SDS011;63269;53.330;-6.288;2023-01-29T00:10:46;6.47;;;4.72;;
74749;SDS011;63269;53.330;-6.288;2023-01-29T00:13:11;6.75;;;4.82;;
74749;SDS011;63269;53.330;-6.288;2023-01-29T00:15:37;7.07;;;4.93;;
74749;SDS011;63269;53.330;-6.288;2023-01-29T00:18:03;8.27;;;4.72;;
74749;SDS011;63269;53.330;-6.288;2023-01-29T00:20:29;6.72;;;5.13;;
74749;SDS011;63269;53.330;-6.288;2023-01-29T00:22:54;6.38;;;4.78;;
74749;SDS011;63269;53.330;-6.288;2023-01-29T00:25:20;6.22;;;5.03;;
74749;SDS011;63269;53.330;-6.288;2023-01-29T00:27:45;7.05;;;4.85;;
74749;SDS011;63269;53.330;-6.288;2023-01-29T00:30:11;7.55;;;4.80;;
74749;SDS011;63269;53.330;-6.288;2023-01-29T00:32:37;7.35;;;4.90;;
74749;SDS011;63269;53.330;-6.288;2023-01-29T00:35:06;7.90;;;5.03;;
74749;SDS011;63269;53.330;-6.288;2023-01-29T00:37:32;5.93;;;4.57;;
74749;SDS011;63269;53.330;-6.288;2023-01-29T00:39:58;6.15;;;4.40;;
74749;SDS011;63269;53.330;-6.288;2023-01-29T00:42:23;6.00;;;4.25;;
74749;SDS011;63269;53.330;-6.288;2023-01-29T00:45:08;5.57;;;4.13;;
74749;SDS011;63269;53.330;-6.288;2023-01-29T00:47:34;7.13;;;4.10;;
74749;SDS011;63269;53.330;-6.288;2023-01-29T00:50:01;5.85;;;4.47;;
74749;SDS011;63269;53.330;-6.288;2023-01-29T00:52:28;7.00;;;3.67;;
74749;SDS011;63269;53.330;-6.288;2023-01-29T00:54:55;4.72;;;3.65;;
74749;SDS011;63269;53.330;-6.288;2023-01-29T00:57:22;5.10;;;3.78;;
74749;SDS011;63269;53.330;-6.288;2023-01-29T00:59:49;7.20;;;4.05;;
74749;SDS011;63269;53.330;-6.288;2023-01-29T01:02:15;4.45;;;3.80;;
74749;SDS011;63269;53.330;-6.288;2023-01-29T01:04:59;5.32;;;3.33;;
74749;SDS011;63269;53.330;-6.288;2023-01-29T01:07:26;5.53;;;3.38;;
74749;SDS011;63269;53.330;-6.288;2023-01-29T01:09:51;4.68;;;3.67;;
74749;SDS011;63269;53.330;-6.288;2023-01-29T01:12:53;5.22;;;3.30;;
74749;SDS011;63269;53.330;-6.288;2023-01-29T01:15:27;4.45;;;3.95;;
74749;SDS011;63269;53.330;-6.288;2023-01-29T01:17:55;5.85;;;3.70;;
74749;SDS011;63269;53.330;-6.288;2023-01-29T01:20:22;5.00;;;3.30;;
74749;SDS011;63269;53.330;-6.288;2023-01-29T01:22:49;5.18;;;3.40;;
74749;SDS011;63269;53.330;-6.288;2023-01-29T01:25:15;4.45;;;2.75;;
74749;SDS011;63269;53.330;-6.288;2023-01-29T01:27:41;4.65;;;3.03;;
74749;SDS011;63269;53.330;-6.288;2023-01-29T01:30:08;4.75;;;3.00;;
74749;SDS011;63269;53.330;-6.288;2023-01-29T01:32:35;4.25;;;3.17;;
74749;SDS011;63269;53.330;-6.288;2023-01-29T01:35:01;9.75;;;3.92;;
74749;SDS011;63269;53.330;-6.288;2023-01-29T01:37:26;4.35;;;2.95;;
74749;SDS011;63269;53.330;-6.288;2023-01-29T01:39:52;5.60;;;2.80;;
74749;SDS011;63269;53.330;-6.288;2023-01-29T01:42:21;3.20;;;2.80;;
74749;SDS011;63269;53.330;-6.288;2023-01-29T01:44:55;3.42;;;2.55;;
74749;SDS011;63269;53.330;-6.288;2023-01-29T01:47:37;3.50;;;2.95;;
74749;SDS011;63269;53.330;-6.288;2023-01-29T01:50:52;3.80;;;2.67;;
74749;SDS011;63269;53.330;-6.288;2023-01-29T01:53:01;2.55;;;2.33;;
74749;SDS011;63269;53.330;-6.288;2023-01-29T01:55:32;3.90;;;2.42;;
74749;SDS011;63269;53.330;-6.288;2023-01-29T01:58:11;4.95;;;2.88;;
74749;SDS011;63269;53.330;-6.288;2023-01-29T02:00:40;3.25;;;2.38;;
74749;SDS011;63269;53.330;-6.288;2023-01-29T02:03:05;4.00;;;2.40;;
74749;SDS011;63269;53.330;-6.288;2023-01-29T02:05:53;4.28;;;2.63;;
74749;SDS011;63269;53.330;-6.288;2023-01-29T02:08:42;4.28;;;2.40;;
74749;SDS011;63269;53.330;-6.288;2023-01-29T02:11:32;2.70;;;2.30;;
74749;SDS011;63269;53.330;-6.288;2023-01-29T02:13:57;3.05;;;2.60;;
74749;SDS011;63269;53.330;-6.288;2023-01-29T02:16:23;4.18;;;2.28;;
74749;SDS011;63269;53.330;-6.288;2023-01-29T02:18:48;3.55;;;2.67;;
74749;SDS011;63269;53.330;-6.288;2023-01-29T02:21:29;3.53;;;2.30;;
74749;SDS011;63269;53.330;-6.288;2023-01-29T02:27:02;3.28;;;2.05;;
74749;SDS011;63269;53.330;-6.288;2023-01-29T02:29:43;4.80;;;2.67;;
74749;SDS011;63269;53.330;-6.288;2023-01-29T02:32:41;2.83;;;2.30;;
74749;SDS011;63269;53.330;-6.288;2023-01-29T02:35:33;3.33;;;2.50;;
74749;SDS011;63269;53.330;-6.288;2023-01-29T02:38:10;4.30;;;2.60;;
74749;SDS011;63269;53.330;-6.288;2023-01-29T02:41:01;3.67;;;2.03;;
74749;SDS011;63269;53.330;-6.288;2023-01-29T02:46:22;2.50;;;2.00;;
74749;SDS011;63269;53.330;-6.288;2023-01-29T02:52:06;2.50;;;2.00;;
74749;SDS011;63269;53.330;-6.288;2023-01-29T02:57:03;2.58;;;1.90;;
74749;SDS011;63269;53.330;-6.288;2023-01-29T03:05:07;3.50;;;2.28;;
74749;SDS011;63269;53.330;-6.288;2023-01-29T03:12:40;2.40;;;1.63;;
74749;SDS011;63269;53.330;-6.288;2023-01-29T03:15:16;2.33;;;1.60;;
74749;SDS011;63269;53.330;-6.288;2023-01-29T03:17:53;2.83;;;1.48;;
74749;SDS011;63269;53.330;-6.288;2023-01-29T03:20:23;2.40;;;1.90;;
74749;SDS011;63269;53.330;-6.288;2023-01-29T03:22:57;2.17;;;1.60;;
74749;SDS011;63269;53.330;-6.288;2023-01-29T03:25:26;2.42;;;1.80;;
74749;SDS011;63269;53.330;-6.288;2023-01-29T03:28:11;2.28;;;1.40;;
74749;SDS011;63269;53.330;-6.288;2023-01-29T03:31:05;2.10;;;1.60;;
74749;SDS011;63269;53.330;-6.288;2023-01-29T03:36:33;2.13;;;1.60;;
74749;SDS011;63269;53.330;-6.288;2023-01-29T03:39:07;2.00;;;1.42;;
74749;SDS011;63269;53.330;-6.288;2023-01-29T03:41:36;1.50;;;1.40;;
74749;SDS011;63269;53.330;-6.288;2023-01-29T03:47:17;2.00;;;1.52;;
74749;SDS011;63269;53.330;-6.288;2023-01-29T04:00:49;1.63;;;1.30;;
74749;SDS011;63269;53.330;-6.288;2023-01-29T04:03:23;1.75;;;1.33;;
74749;SDS011;63269;53.330;-6.288;2023-01-29T04:05:59;2.47;;;1.25;;
74749;SDS011;63269;53.330;-6.288;2023-01-29T04:08:35;1.77;;;1.38;;
74749;SDS011;63269;53.330;-6.288;2023-01-29T04:11:10;1.52;;;1.10;;
74749;SDS011;63269;53.330;-6.288;2023-01-29T04:16:04;2.47;;;1.23;;
74749;SDS011;63269;53.330;-6.288;2023-01-29T04:18:33;1.35;;;1.10;;
74749;SDS011;63269;53.330;-6.288;2023-01-29T04:21:00;1.35;;;0.98;;
74749;SDS011;63269;53.330;-6.288;2023-01-29T04:23:26;2.33;;;1.20;;
74749;SDS011;63269;53.330;-6.288;2023-01-29T04:26:03;1.55;;;1.00;;
74749;SDS011;63269;53.330;-6.288;2023-01-29T04:31:13;1.25;;;0.70;;
74749;SDS011;63269;53.330;-6.288;2023-01-29T04:34:04;2.08;;;1.02;;
74749;SDS011;63269;53.330;-6.288;2023-01-29T04:42:30;1.20;;;0.70;;
74749;SDS011;63269;53.330;-6.288;2023-01-29T04:45:08;2.33;;;0.95;;
74749;SDS011;63269;53.330;-6.288;2023-01-29T04:50:23;1.20;;;0.70;;
74749;SDS011;63269;53.330;-6.288;2023-01-29T04:53:02;1.55;;;1.23;;
74749;SDS011;63269;53.330;-6.288;2023-01-29T05:00:40;1.40;;;0.65;;
74749;SDS011;63269;53.330;-6.288;2023-01-29T05:03:07;1.77;;;0.75;;
74749;SDS011;63269;53.330;-6.288;2023-01-29T05:05:37;2.20;;;0.90;;
74749;SDS011;63269;53.330;-6.288;2023-01-29T05:08:05;1.43;;;0.70;;
74749;SDS011;63269;53.330;-6.288;2023-01-29T05:10:32;0.80;;;0.52;;
74749;SDS011;63269;53.330;-6.288;2023-01-29T05:12:59;1.17;;;0.70;;
74749;SDS011;63269;53.330;-6.288;2023-01-29T05:15:32;0.95;;;0.70;;
74749;SDS011;63269;53.330;-6.288;2023-01-29T05:18:01;1.45;;;0.65;;
74749;SDS011;63269;53.330;-6.288;2023-01-29T05:20:29;1.85;;;0.75;;
74749;SDS011;63269;53.330;-6.288;2023-01-29T05:22:57;1.20;;;0.60;;
74749;SDS011;63269;53.330;-6.288;2023-01-29T05:25:27;1.65;;;0.80;;
74749;SDS011;63269;53.330;-6.288;2023-01-29T05:27:55;1.90;;;0.70;;
74749;SDS011;63269;53.330;-6.288;2023-01-29T05:30:38;2.33;;;0.80;;
74749;SDS011;63269;53.330;-6.288;2023-01-29T05:33:08;1.63;;;0.60;;
74749;SDS011;63269;53.330;-6.288;2023-01-29T05:35:38;0.75;;;0.40;;
74749;SDS011;63269;53.330;-6.288;2023-01-29T05:38:03;1.23;;;0.65;;
74749;SDS011;63269;53.330;-6.288;2023-01-29T05:40:28;1.25;;;0.73;;
74749;SDS011;63269;53.330;-6.288;2023-01-29T05:42:54;1.20;;;0.65;;
74749;SDS011;63269;53.330;-6.288;2023-01-29T05:45:19;1.15;;;0.50;;
74749;SDS011;63269;53.330;-6.288;2023-01-29T05:47:45;1.23;;;0.60;;
74749;SDS011;63269;53.330;-6.288;2023-01-29T05:50:11;1.30;;;0.60;;
74749;SDS011;63269;53.330;-6.288;2023-01-29T05:52:37;1.05;;;0.50;;
74749;SDS011;63269;53.330;-6.288;2023-01-29T05:55:03;1.30;;;0.47;;
74749;SDS011;63269;53.330;-6.288;2023-01-29T05:57:29;1.33;;;0.40;;
74749;SDS011;63269;53.330;-6.288;2023-01-29T05:59:54;1.48;;;0.50;;
74749;SDS011;63269;53.330;-6.288;2023-01-29T06:02:20;1.80;;;0.35;;
74749;SDS011;63269;53.330;-6.288;2023-01-29T06:04:45;1.52;;;0.70;;
74749;SDS011;63269;53.330;-6.288;2023-01-29T06:07:11;0.90;;;0.30;;
74749;SDS011;63269;53.330;-6.288;2023-01-29T06:09:36;0.63;;;0.32;;
74749;SDS011;63269;53.330;-6.288;2023-01-29T06:12:02;0.60;;;0.32;;
74749;SDS011;63269;53.330;-6.288;2023-01-29T06:14:30;0.88;;;0.40;;
74749;SDS011;63269;53.330;-6.288;2023-01-29T06:16:55;0.77;;;0.28;;
74749;SDS011;63269;53.330;-6.288;2023-01-29T06:19:21;0.98;;;0.50;;
74749;SDS011;63269;53.330;-6.288;2023-01-29T06:21:46;1.13;;;0.38;;
74749;SDS011;63269;53.330;-6.288;2023-01-29T06:24:12;1.25;;;0.65;;
74749;SDS011;63269;53.330;-6.288;2023-01-29T06:26:37;0.80;;;0.50;;
74749;SDS011;63269;53.330;-6.288;2023-01-29T06:29:02;0.75;;;0.30;;
74749;SDS011;63269;53.330;-6.288;2023-01-29T06:31:28;2.22;;;0.30;;
74749;SDS011;63269;53.330;-6.288;2023-01-29T06:33:53;0.80;;;0.40;;
74749;SDS011;63269;53.330;-6.288;2023-01-29T06:36:19;0.60;;;0.40;;
74749;SDS011;63269;53.330;-6.288;2023-01-29T06:38:44;0.75;;;0.30;;
74749;SDS011;63269;53.330;-6.288;2023-01-29T06:41:10;0.80;;;0.32;;
74749;SDS011;63269;53.330;-6.288;2023-01-29T06:43:38;0.65;;;0.40;;
74749;SDS011;63269;53.330;-6.288;2023-01-29T06:46:05;0.82;;;0.60;;
74749;SDS011;63269;53.330;-6.288;2023-01-29T06:48:31;0.70;;;0.30;;
74749;SDS011;63269;53.330;-6.288;2023-01-29T06:51:00;0.95;;;0.47;;
74749;SDS011;63269;53.330;-6.288;2023-01-29T06:53:30;0.50;;;0.30;;
74749;SDS011;63269;53.330;-6.288;2023-01-29T06:55:56;0.95;;;0.32;;
74749;SDS011;63269;53.330;-6.288;2023-01-29T06:58:22;0.57;;;0.20;;
74749;SDS011;63269;53.330;-6.288;2023-01-29T07:00:47;0.50;;;0.30;;
74749;SDS011;63269;53.330;-6.288;2023-01-29T07:03:13;0.75;;;0.35;;
74749;SDS011;63269;53.330;-6.288;2023-01-29T07:05:38;0.63;;;0.20;;
74749;SDS011;63269;53.330;-6.288;2023-01-29T07:08:04;0.68;;;0.40;;
74749;SDS011;63269;53.330;-6.288;2023-01-29T07:10:29;0.50;;;0.20;;
74749;SDS011;63269;53.330;-6.288;2023-01-29T07:12:55;1.38;;;0.40;;
74749;SDS011;63269;53.330;-6.288;2023-01-29T07:15:23;0.52;;;0.30;;
74749;SDS011;63269;53.330;-6.288;2023-01-29T07:17:55;0.55;;;0.30;;
74749;SDS011;63269;53.330;-6.288;2023-01-29T07:20:28;1.23;;;0.63;;
74749;SDS011;63269;53.330;-6.288;2023-01-29T07:22:55;0.65;;;0.20;;
74749;SDS011;63269;53.330;-6.288;2023-01-29T07:25:21;1.23;;;0.40;;
74749;SDS011;63269;53.330;-6.288;2023-01-29T07:27:47;0.75;;;0.40;;
74749;SDS011;63269;53.330;-6.288;2023-01-29T07:30:13;0.60;;;0.30;;
74749;SDS011;63269;53.330;-6.288;2023-01-29T07:32:38;0.47;;;0.20;;
74749;SDS011;63269;53.330;-6.288;2023-01-29T07:35:04;0.65;;;0.30;;
74749;SDS011;63269;53.330;-6.288;2023-01-29T07:37:29;0.50;;;0.20;;
74749;SDS011;63269;53.330;-6.288;2023-01-29T07:39:55;0.63;;;0.40;;
74749;SDS011;63269;53.330;-6.288;2023-01-29T07:42:20;0.45;;;0.20;;
74749;SDS011;63269;53.330;-6.288;2023-01-29T07:44:46;0.65;;;0.32;;
74749;SDS011;63269;53.330;-6.288;2023-01-29T07:47:11;0.40;;;0.10;;
74749;SDS011;63269;53.330;-6.288;2023-01-29T07:49:36;0.57;;;0.30;;
74749;SDS011;63269;53.330;-6.288;2023-01-29T07:52:02;0.70;;;0.30;;
74749;SDS011;63269;53.330;-6.288;2023-01-29T07:54:27;0.40;;;0.20;;
74749;SDS011;63269;53.330;-6.288;2023-01-29T07:56:53;0.60;;;0.30;;
74749;SDS011;63269;53.330;-6.288;2023-01-29T07:59:18;2.03;;;0.30;;
74749;SDS011;63269;53.330;-6.288;2023-01-29T08:01:44;1.35;;;0.65;;
74749;SDS011;63269;53.330;-6.288;2023-01-29T08:04:09;0.30;;;0.20;;
74749;SDS011;63269;53.330;-6.288;2023-01-29T08:06:34;0.50;;;0.30;;
74749;SDS011;63269;53.330;-6.288;2023-01-29T08:09:00;1.15;;;0.28;;
74749;SDS011;63269;53.330;-6.288;2023-01-29T08:11:26;0.75;;;0.20;;
74749;SDS011;63269;53.330;-6.288;2023-01-29T08:13:51;0.28;;;0.20;;
74749;SDS011;63269;53.330;-6.288;2023-01-29T08:16:18;0.40;;;0.20;;
74749;SDS011;63269;53.330;-6.288;2023-01-29T08:18:43;0.55;;;0.20;;
74749;SDS011;63269;53.330;-6.288;2023-01-29T08:21:11;0.90;;;0.30;;
74749;SDS011;63269;53.330;-6.288;2023-01-29T08:23:37;0.35;;;0.20;;
74749;SDS011;63269;53.330;-6.288;2023-01-29T08:26:03;0.55;;;0.30;;
74749;SDS011;63269;53.330;-6.288;2023-01-29T08:28:29;0.40;;;0.30;;
74749;SDS011;63269;53.330;-6.288;2023-01-29T08:30:54;0.35;;;0.20;;
74749;SDS011;63269;53.330;-6.288;2023-01-29T08:33:19;0.50;;;0.22;;
74749;SDS011;63269;53.330;-6.288;2023-01-29T08:35:49;0.85;;;0.40;;
74749;SDS011;63269;53.330;-6.288;2023-01-29T08:38:15;0.40;;;0.20;;
74749;SDS011;63269;53.330;-6.288;2023-01-29T08:40:40;0.57;;;0.20;;
74749;SDS011;63269;53.330;-6.288;2023-01-29T08:43:06;0.40;;;0.30;;
74749;SDS011;63269;53.330;-6.288;2023-01-29T08:45:33;0.75;;;0.30;;
74749;SDS011;63269;53.330;-6.288;2023-01-29T08:48:01;0.38;;;0.20;;
74749;SDS011;63269;53.330;-6.288;2023-01-29T08:50:26;0.98;;;0.40;;
74749;SDS011;63269;53.330;-6.288;2023-01-29T08:52:58;0.47;;;0.20;;
74749;SDS011;63269;53.330;-6.288;2023-01-29T08:55:24;0.98;;;0.35;;
74749;SDS011;63269;53.330;-6.288;2023-01-29T08:57:50;0.68;;;0.30;;
74749;SDS011;63269;53.330;-6.288;2023-01-29T09:00:16;0.50;;;0.30;;
74749;SDS011;63269;53.330;-6.288;2023-01-29T09:02:42;0.32;;;0.20;;
74749;SDS011;63269;53.330;-6.288;2023-01-29T09:05:08;2.40;;;0.60;;
74749;SDS011;63269;53.330;-6.288;2023-01-29T09:07:34;1.30;;;0.30;;
74749;SDS011;63269;53.330;-6.288;2023-01-29T09:10:00;1.08;;;0.30;;
74749;SDS011;63269;53.330;-6.288;2023-01-29T09:12:25;0.50;;;0.28;;
74749;SDS011;63269;53.330;-6.288;2023-01-29T09:14:51;3.10;;;0.32;;
74749;SDS011;63269;53.330;-6.288;2023-01-29T09:17:16;1.20;;;0.40;;
74749;SDS011;63269;53.330;-6.288;2023-01-29T09:19:42;1.50;;;0.30;;
74749;SDS011;63269;53.330;-6.288;2023-01-29T09:22:07;1.33;;;0.40;;
74749;SDS011;63269;53.330;-6.288;2023-01-29T09:24:32;8.63;;;0.52;;
74749;SDS011;63269;53.330;-6.288;2023-01-29T09:26:59;2.13;;;0.38;;
74749;SDS011;63269;53.330;-6.288;2023-01-29T09:29:25;0.63;;;0.20;;
74749;SDS011;63269;53.330;-6.288;2023-01-29T09:31:50;1.73;;;0.75;;
74749;SDS011;63269;53.330;-6.288;2023-01-29T09:34:16;0.75;;;0.30;;
74749;SDS011;63269;53.330;-6.288;2023-01-29T09:36:41;2.83;;;0.30;;
74749;SDS011;63269;53.330;-6.288;2023-01-29T09:39:07;1.60;;;0.50;;
74749;SDS011;63269;53.330;-6.288;2023-01-29T09:44:18;0.65;;;0.30;;
74749;SDS011;63269;53.330;-6.288;2023-01-29T09:47:02;1.52;;;0.40;;
74749;SDS011;63269;53.330;-6.288;2023-01-29T09:49:33;3.30;;;0.40;;
74749;SDS011;63269;53.330;-6.288;2023-01-29T09:52:08;0.98;;;0.30;;
74749;SDS011;63269;53.330;-6.288;2023-01-29T09:57:09;0.52;;;0.30;;
74749;SDS011;63269;53.330;-6.288;2023-01-29T09:59:43;0.90;;;0.50;;
74749;SDS011;63269;53.330;-6.288;2023-01-29T10:02:27;2.75;;;0.40;;
74749;SDS011;63269;53.330;-6.288;2023-01-29T10:05:06;1.00;;;0.35;;
74749;SDS011;63269;53.330;-6.288;2023-01-29T10:10:48;0.90;;;0.40;;
74749;SDS011;63269;53.330;-6.288;2023-01-29T10:27:16;1.67;;;0.43;;
74749;SDS011;63269;53.330;-6.288;2023-01-29T10:29:43;1.30;;;0.30;;
74749;SDS011;63269;53.330;-6.288;2023-01-29T10:32:13;0.95;;;0.35;;
74749;SDS011;63269;53.330;-6.288;2023-01-29T10:34:46;1.65;;;0.47;;
74749;SDS011;63269;53.330;-6.288;2023-01-29T10:37:20;1.10;;;0.52;;
74749;SDS011;63269;53.330;-6.288;2023-01-29T10:39:48;0.68;;;0.32;;
74749;SDS011;63269;53.330;-6.288;2023-01-29T10:56:07;0.90;;;0.32;;
74749;SDS011;63269;53.330;-6.288;2023-01-29T10:58:54;0.93;;;0.40;;
74749;SDS011;63269;53.330;-6.288;2023-01-29T11:01:23;1.15;;;0.55;;
74749;SDS011;63269;53.330;-6.288;2023-01-29T11:03:57;0.95;;;0.40;;
74749;SDS011;63269;53.330;-6.288;2023-01-29T11:14:25;0.90;;;0.43;;
74749;SDS011;63269;53.330;-6.288;2023-01-29T11:16:53;0.55;;;0.30;;
74749;SDS011;63269;53.330;-6.288;2023-01-29T11:19:35;1.02;;;0.38;;
74749;SDS011;63269;53.330;-6.288;2023-01-29T11:22:02;1.88;;;0.50;;
74749;SDS011;63269;53.330;-6.288;2023-01-29T11:24:28;0.68;;;0.32;;
74749;SDS011;63269;53.330;-6.288;2023-01-29T11:26:55;1.00;;;0.52;;
74749;SDS011;63269;53.330;-6.288;2023-01-29T11:31:54;1.63;;;0.65;;
74749;SDS011;63269;53.330;-6.288;2023-01-29T11:34:21;1.00;;;0.47;;
74749;SDS011;63269;53.330;-6.288;2023-01-29T11:37:01;1.90;;;0.95;;
74749;SDS011;63269;53.330;-6.288;2023-01-29T11:39:29;6.97;;;4.32;;
74749;SDS011;63269;53.330;-6.288;2023-01-29T11:41:59;7.80;;;5.35;;
74749;SDS011;63269;53.330;-6.288;2023-01-29T11:52:25;13.70;;;8.48;;
74749;SDS011;63269;53.330;-6.288;2023-01-29T11:54:59;12.93;;;8.52;;
74749;SDS011;63269;53.330;-6.288;2023-01-29T11:57:33;10.88;;;7.90;;
74749;SDS011;63269;53.330;-6.288;2023-01-29T12:00:02;11.13;;;7.97;;
74749;SDS011;63269;53.330;-6.288;2023-01-29T12:02:32;10.48;;;6.53;;
74749;SDS011;63269;53.330;-6.288;2023-01-29T12:05:14;9.18;;;6.32;;
74749;SDS011;63269;53.330;-6.288;2023-01-29T12:07:43;9.35;;;6.20;;
74749;SDS011;63269;53.330;-6.288;2023-01-29T12:10:44;9.85;;;6.28;;
74749;SDS011;63269;53.330;-6.288;2023-01-29T12:15:40;7.82;;;5.10;;
74749;SDS011;63269;53.330;-6.288;2023-01-29T12:20:57;11.93;;;4.68;;
74749;SDS011;63269;53.330;-6.288;2023-01-29T12:26:48;7.38;;;3.95;;
74749;SDS011;63269;53.330;-6.288;2023-01-29T12:40:37;6.65;;;2.95;;
74749;SDS011;63269;53.330;-6.288;2023-01-29T12:46:01;6.03;;;3.00;;
74749;SDS011;63269;53.330;-6.288;2023-01-29T12:48:31;8.00;;;2.80;;
74749;SDS011;63269;53.330;-6.288;2023-01-29T12:53:49;6.45;;;2.72;;
74749;SDS011;63269;53.330;-6.288;2023-01-29T12:56:25;4.82;;;2.03;;
74749;SDS011;63269;53.330;-6.288;2023-01-29T12:58:54;6.45;;;2.90;;
74749;SDS011;63269;53.330;-6.288;2023-01-29T13:01:24;3.10;;;2.10;;
74749;SDS011;63269;53.330;-6.288;2023-01-29T13:04:05;4.15;;;2.47;;
74749;SDS011;63269;53.330;-6.288;2023-01-29T13:06:41;5.97;;;1.85;;
74749;SDS011;63269;53.330;-6.288;2023-01-29T13:09:12;6.68;;;2.28;;
74749;SDS011;63269;53.330;-6.288;2023-01-29T13:11:49;5.63;;;2.50;;
74749;SDS011;63269;53.330;-6.288;2023-01-29T13:16:48;4.18;;;1.90;;
74749;SDS011;63269;53.330;-6.288;2023-01-29T13:19:26;5.78;;;1.92;;
74749;SDS011;63269;53.330;-6.288;2023-01-29T13:21:58;3.85;;;2.03;;
74749;SDS011;63269;53.330;-6.288;2023-01-29T13:24:26;2.47;;;1.60;;
74749;SDS011;63269;53.330;-6.288;2023-01-29T13:26:58;3.45;;;1.80;;
74749;SDS011;63269;53.330;-6.288;2023-01-29T13:29:25;3.58;;;1.83;;
74749;SDS011;63269;53.330;-6.288;2023-01-29T13:31:53;2.78;;;1.50;;
74749;SDS011;63269;53.330;-6.288;2023-01-29T13:36:46;2.92;;;1.50;;
74749;SDS011;63269;53.330;-6.288;2023-01-29T13:39:34;3.30;;;1.80;;
74749;SDS011;63269;53.330;-6.288;2023-01-29T13:42:42;3.53;;;1.58;;
74749;SDS011;63269;53.330;-6.288;2023-01-29T13:45:04;4.05;;;1.45;;
74749;SDS011;63269;53.330;-6.288;2023-01-29T13:47:32;3.75;;;1.38;;
74749;SDS011;63269;53.330;-6.288;2023-01-29T13:50:08;3.42;;;1.50;;
74749;SDS011;63269;53.330;-6.288;2023-01-29T13:52:43;2.25;;;1.40;;
74749;SDS011;63269;53.330;-6.288;2023-01-29T14:00:46;2.42;;;1.30;;
74749;SDS011;63269;53.330;-6.288;2023-01-29T14:07:54;2.92;;;1.27;;
74749;SDS011;63269;53.330;-6.288;2023-01-29T14:12:53;2.78;;;1.08;;
74749;SDS011;63269;53.330;-6.288;2023-01-29T14:15:39;2.67;;;1.00;;
74749;SDS011;63269;53.330;-6.288;2023-01-29T14:18:11;2.05;;;1.08;;
74749;SDS011;63269;53.330;-6.288;2023-01-29T14:26:25;3.13;;;1.63;;
74749;SDS011;63269;53.330;-6.288;2023-01-29T14:34:52;4.75;;;1.17;;
74749;SDS011;63269;53.330;-6.288;2023-01-29T14:42:33;3.60;;;1.30;;
74749;SDS011;63269;53.330;-6.288;2023-01-29T14:45:07;4.70;;;1.50;;
74749;SDS011;63269;53.330;-6.288;2023-01-29T14:50:02;3.55;;;1.70;;
74749;SDS011;63269;53.330;-6.288;2023-01-29T14:52:48;2.00;;;1.00;;
74749;SDS011;63269;53.330;-6.288;2023-01-29T14:55:24;3.03;;;1.10;;
74749;SDS011;63269;53.330;-6.288;2023-01-29T14:57:53;3.97;;;1.70;;
74749;SDS011;63269;53.330;-6.288;2023-01-29T15:00:25;1.60;;;1.00;;
74749;SDS011;63269;53.330;-6.288;2023-01-29T15:02:52;3.85;;;2.17;;
74749;SDS011;63269;53.330;-6.288;2023-01-29T15:05:21;2.25;;;1.10;;
74749;SDS011;63269;53.330;-6.288;2023-01-29T15:13:59;3.17;;;1.58;;
74749;SDS011;63269;53.330;-6.288;2023-01-29T15:16:30;4.97;;;1.52;;
74749;SDS011;63269;53.330;-6.288;2023-01-29T15:19:10;5.60;;;1.30;;
74749;SDS011;63269;53.330;-6.288;2023-01-29T15:22:00;4.18;;;1.33;;
74749;SDS011;63269;53.330;-6.288;2023-01-29T15:24:29;3.10;;;1.13;;
74749;SDS011;63269;53.330;-6.288;2023-01-29T15:26:54;6.90;;;1.42;;
74749;SDS011;63269;53.330;-6.288;2023-01-29T15:29:22;4.32;;;1.10;;
74749;SDS011;63269;53.330;-6.288;2023-01-29T15:31:49;12.60;;;1.38;;
74749;SDS011;63269;53.330;-6.288;2023-01-29T15:34:15;4.63;;;1.27;;
74749;SDS011;63269;53.330;-6.288;2023-01-29T15:36:41;3.35;;;1.10;;
74749;SDS011;63269;53.330;-6.288;2023-01-29T15:39:17;4.45;;;1.80;;
74749;SDS011;63269;53.330;-6.288;2023-01-29T15:41:44;3.58;;;1.02;;
74749;SDS011;63269;53.330;-6.288;2023-01-29T15:44:11;3.03;;;1.10;;
74749;SDS011;63269;53.330;-6.288;2023-01-29T15:47:01;3.47;;;1.50;;
74749;SDS011;63269;53.330;-6.288;2023-01-29T15:52:00;2.78;;;1.23;;
74749;SDS011;63269;53.330;-6.288;2023-01-29T15:54:31;4.38;;;1.00;;
74749;SDS011;63269;53.330;-6.288;2023-01-29T15:56:58;2.42;;;1.13;;
74749;SDS011;63269;53.330;-6.288;2023-01-29T15:59:26;2.92;;;1.17;;
74749;SDS011;63269;53.330;-6.288;2023-01-29T16:01:55;1.58;;;1.00;;
74749;SDS011;63269;53.330;-6.288;2023-01-29T16:04:22;2.10;;;1.20;;
74749;SDS011;63269;53.330;-6.288;2023-01-29T16:06:51;3.80;;;1.17;;
74749;SDS011;63269;53.330;-6.288;2023-01-29T16:09:19;3.30;;;1.45;;
74749;SDS011;63269;53.330;-6.288;2023-01-29T16:11:47;3.75;;;1.30;;
74749;SDS011;63269;53.330;-6.288;2023-01-29T16:14:14;2.20;;;1.15;;
74749;SDS011;63269;53.330;-6.288;2023-01-29T16:16:43;3.40;;;1.38;;
74749;SDS011;63269;53.330;-6.288;2023-01-29T16:19:12;3.67;;;1.20;;
74749;SDS011;63269;53.330;-6.288;2023-01-29T16:21:50;2.17;;;0.98;;
74749;SDS011;63269;53.330;-6.288;2023-01-29T16:24:24;4.38;;;1.40;;
74749;SDS011;63269;53.330;-6.288;2023-01-29T16:26:50;2.80;;;1.30;;
74749;SDS011;63269;53.330;-6.288;2023-01-29T16:29:22;3.83;;;1.58;;
74749;SDS011;63269;53.330;-6.288;2023-01-29T16:31:53;4.30;;;1.48;;
74749;SDS011;63269;53.330;-6.288;2023-01-29T16:34:40;4.30;;;1.77;;
74749;SDS011;63269;53.330;-6.288;2023-01-29T16:39:46;3.67;;;1.65;;
74749;SDS011;63269;53.330;-6.288;2023-01-29T16:44:54;5.25;;;1.80;;
74749;SDS011;63269;53.330;-6.288;2023-01-29T16:47:38;6.50;;;1.70;;
74749;SDS011;63269;53.330;-6.288;2023-01-29T16:52:53;4.80;;;1.67;;
74749;SDS011;63269;53.330;-6.288;2023-01-29T16:55:23;4.63;;;1.48;;
74749;SDS011;63269;53.330;-6.288;2023-01-29T16:57:52;9.80;;;2.03;;
74749;SDS011;63269;53.330;-6.288;2023-01-29T17:00:23;3.45;;;1.50;;
74749;SDS011;63269;53.330;-6.288;2023-01-29T17:02:51;6.18;;;1.95;;
74749;SDS011;63269;53.330;-6.288;2023-01-29T17:05:30;4.55;;;1.90;;
74749;SDS011;63269;53.330;-6.288;2023-01-29T17:07:58;4.70;;;1.77;;
74749;SDS011;63269;53.330;-6.288;2023-01-29T17:10:25;4.65;;;1.90;;
74749;SDS011;63269;53.330;-6.288;2023-01-29T17:12:53;2.80;;;1.33;;
74749;SDS011;63269;53.330;-6.288;2023-01-29T17:18:19;3.15;;;1.30;;
74749;SDS011;63269;53.330;-6.288;2023-01-29T17:20:46;4.63;;;1.60;;
74749;SDS011;63269;53.330;-6.288;2023-01-29T17:23:12;3.70;;;1.58;;
74749;SDS011;63269;53.330;-6.288;2023-01-29T17:25:38;5.53;;;1.77;;
74749;SDS011;63269;53.330;-6.288;2023-01-29T17:28:04;3.15;;;1.60;;
74749;SDS011;63269;53.330;-6.288;2023-01-29T17:30:30;4.10;;;1.50;;
74749;SDS011;63269;53.330;-6.288;2023-01-29T17:32:59;3.28;;;1.65;;
74749;SDS011;63269;53.330;-6.288;2023-01-29T17:35:26;4.03;;;2.03;;
74749;SDS011;63269;53.330;-6.288;2023-01-29T17:37:52;4.43;;;1.52;;
74749;SDS011;63269;53.330;-6.288;2023-01-29T17:40:36;4.43;;;1.73;;
74749;SDS011;63269;53.330;-6.288;2023-01-29T17:43:06;4.30;;;1.90;;
74749;SDS011;63269;53.330;-6.288;2023-01-29T17:45:32;5.78;;;1.70;;
74749;SDS011;63269;53.330;-6.288;2023-01-29T17:47:57;3.85;;;1.60;;
74749;SDS011;63269;53.330;-6.288;2023-01-29T17:50:27;3.85;;;1.92;;
74749;SDS011;63269;53.330;-6.288;2023-01-29T17:52:55;4.13;;;1.83;;
74749;SDS011;63269;53.330;-6.288;2023-01-29T17:55:21;4.40;;;1.80;;
74749;SDS011;63269;53.330;-6.288;2023-01-29T17:57:46;5.53;;;1.80;;
74749;SDS011;63269;53.330;-6.288;2023-01-29T18:00:19;4.40;;;1.77;;
74749;SDS011;63269;53.330;-6.288;2023-01-29T18:02:46;5.88;;;1.77;;
74749;SDS011;63269;53.330;-6.288;2023-01-29T18:05:12;6.60;;;1.50;;